Latest Weather Observations for Lucinda

IDQ60801

Issued at 6:32 am EST Saturday 23 May 2015 (issued every 30 minutes, with the page automatically refreshed every 10 minutes)

About weather observations | Map of weather stations | Latest weather observations for QLD | Other Formats
Station Details ID: 032141 Name: LUCINDA POINT Lat: -18.52 Lon: 146.39 Height: 10.0 m
Data from the previous 72 hours. | See also: Recent months for locations in Queensland
Date/Time
EST
Temp
°C
App
Temp
°C
Dew
Point
Rel
Hum
%
Delta-T
°C
Wind Press
QNH
hPa
Press
MSL
hPa
Rain
since 9 am
mm
Dir
 
Spd
km/h
Gust
km/h
Spd
kts
Gust
kts
23/06:30am 22.1 14.1 3.7 30 8.9 S 35 43 19 23 1018.4 1018.4 0.0
23/06:00am 22.3 13.5 3.4 29 9.1 S 39 44 21 24 1018.1 1018.1 0.0
23/05:30am 22.5 14.3 5.0 32 8.7 S 37 44 20 24 1017.8 1017.8 0.0
23/05:00am 22.5 13.9 4.5 31 8.8 S 39 43 21 23 1017.7 1017.7 0.0
23/04:30am 22.7 17.3 9.5 43 7.1 S 28 35 15 19 1017.5 1017.5 0.0
23/04:00am 22.7 15.6 5.6 33 8.6 SSW 32 37 17 20 1017.6 1017.6 0.0
23/03:30am 22.9 15.8 6.6 35 8.3 SSW 33 43 18 23 1017.3 1017.3 0.0
23/03:00am 23.1 15.4 7.2 36 8.2 SSW 37 44 20 24 1017.2 1017.2 0.0
23/02:30am 23.4 16.2 9.0 40 7.7 S 37 44 20 24 1017.2 1017.2 0.0
23/02:00am 23.7 16.9 10.7 44 7.2 S 37 46 20 25 1017.1 1017.1 0.0
23/01:30am 24.0 16.9 11.0 44 7.3 S 39 44 21 24 1017.4 1017.4 0.0
23/01:00am 24.3 17.6 10.9 43 7.5 S 37 44 20 24 1017.4 1017.4 0.0
23/12:30am 24.6 16.5 8.5 36 8.6 S 41 46 22 25 1017.4 1017.4 0.0
23/12:00am 24.9 17.1 9.6 38 8.4 S 41 50 22 27 1017.6 1017.6 0.0
 
Date/Time
EST
Temp
°C
App
Temp
°C
Dew
Point
Rel
Hum
%
Delta-T
°C
Wind Press
QNH
hPa
Press
MSL
hPa
Rain
since 9 am
mm
Dir
 
Spd
km/h
Gust
km/h
Spd
kts
Gust
kts
22/11:30pm 25.1 18.5 11.3 42 7.8 S 37 44 20 24 1017.6 1017.6 0.0
22/11:00pm 25.4 19.3 11.9 43 7.7 S 35 46 19 25 1017.6 1017.6 0.0
22/10:30pm 25.7 20.0 12.9 45 7.4 S 35 41 19 22 1017.8 1017.8 0.0
22/10:00pm 25.8 19.1 12.3 43 7.8 S 39 44 21 24 1017.8 1017.8 0.0
22/09:30pm 26.1 19.0 12.2 42 8.0 S 41 48 22 26 1017.6 1017.6 0.0
22/09:00pm 26.1 21.4 14.2 48 7.1 S 32 37 17 20 1017.6 1017.6 0.0
22/08:30pm 25.9 24.0 16.7 57 5.7 S 22 30 12 16 1017.5 1017.5 0.0
22/08:00pm 25.3 26.3 17.7 62 4.8 SSE 9 15 5 8 1017.3 1017.3 0.0
22/07:30pm 25.1 25.7 17.6 63 4.7 SE 11 20 6 11 1017.0 1017.0 0.0
22/07:00pm 25.2 25.9 17.1 60 5.0 SE 9 13 5 7 1016.6 1016.6 0.0
22/06:30pm 25.5 26.3 17.4 61 5.1 SE 9 13 5 7 1016.2 1016.2 0.0
22/06:00pm 25.8 26.3 16.6 56 5.7 S 9 11 5 6 1015.7 1015.7 0.0
22/05:30pm 26.2 25.1 15.3 51 6.6 S 15 17 8 9 1015.3 1015.3 0.0
22/05:00pm 26.5 25.1 13.3 44 7.7 S 13 20 7 11 1015.2 1015.2 0.0
22/04:30pm 26.6 25.8 15.0 49 7.0 S 13 17 7 9 1015.0 1015.0 0.0
22/04:00pm 26.3 25.0 14.7 48 7.0 S 15 19 8 10 1015.0 1015.0 0.0
22/03:30pm 25.9 25.9 15.3 52 6.4 SSE 9 15 5 8 1014.9 1014.9 0.0
22/03:00pm 25.9 24.8 14.4 49 6.9 S 13 19 7 10 1015.1 1015.1 0.0
22/02:30pm 25.5 23.7 15.5 54 6.1 S 19 24 10 13 1015.2 1015.2 0.0
22/02:00pm 25.1 22.5 14.8 52 6.2 S 22 28 12 15 1015.5 1015.5 0.0
22/01:30pm 24.7 22.4 14.2 52 6.2 S 19 24 10 13 1015.8 1015.8 0.0
22/01:00pm 24.7 23.2 14.2 52 6.2 S 15 22 8 12 1016.3 1016.3 0.0
22/12:30pm 24.3 21.2 13.5 51 6.3 S 22 26 12 14 1016.9 1016.9 0.0
22/12:00pm 24.3 20.6 12.6 48 6.7 S 24 28 13 15 1017.1 1017.1 0.0
22/11:30am 24.2 20.7 13.4 51 6.3 S 24 28 13 15 1017.7 1017.7 0.0
22/11:00am 24.3 22.6 14.7 55 5.7 SSW 17 20 9 11 1018.3 1018.3 0.0
22/10:30am 23.7 21.5 14.4 56 5.5 SSW 19 22 10 12 1018.7 1018.7 0.0
22/10:00am 23.5 20.4 13.4 53 5.8 SW 22 26 12 14 1019.0 1019.0 0.0
22/09:30am 23.4 19.5 13.3 53 5.8 SW 26 30 14 16 1018.9 1018.9 0.0
22/09:00am 23.1 19.0 13.8 55 5.4 SW 28 30 15 16 1018.8 1018.8 0.2
22/08:30am 22.7 18.7 14.0 58 5.1 SW 28 32 15 17 1018.5 1018.5 0.2
22/08:00am 22.7 19.8 16.0 66 4.0 SW 26 32 14 17 1018.2 1018.2 0.2
22/07:30am 22.6 19.9 16.6 69 3.7 SW 26 28 14 15 1017.8 1017.8 0.2
22/07:00am 22.8 22.2 19.8 83 1.9 SW 22 24 12 13 1017.4 1017.4 0.2
22/06:30am 23.0 22.7 20.3 85 1.7 SW 22 26 12 14 1017.0 1017.0 0.2
22/06:00am 24.2 23.1 17.7 67 4.1 SSW 20 26 11 14 1016.7 1016.7 0.2
22/05:30am 22.8 19.7 18.3 76 2.8 SSW 32 39 17 21 1016.5 1016.5 0.2
22/05:24am 23.2 20.6 17.9 72 3.3 SSW 28 39 15 21 1016.4 1016.4 0.2
22/05:00am 23.3 24.2 21.6 90 1.1 SW 19 20 10 11 1015.9 1015.9 0.2
22/04:30am 23.2 24.0 21.8 92 0.9 SW 20 22 11 12 1015.9 1015.9 0.2
22/04:00am 23.0 24.6 21.4 91 1.1 SW 15 26 8 14 1015.9 1015.9 0.2
22/03:30am 22.9 25.8 21.7 93 0.8 W 9 11 5 6 1015.7 1015.7 0.2
22/03:00am 22.6 23.9 21.6 94 0.7 SW 17 19 9 10 1016.0 1016.0 0.2
22/02:30am 22.5 23.6 21.3 93 0.8 WSW 17 20 9 11 1016.0 1016.0 0.2
22/02:00am 22.7 23.6 21.5 93 0.8 WSW 19 22 10 12 1016.1 1016.1 0.2
22/01:30am 22.6 23.4 21.4 93 0.8 WSW 19 20 10 11 1016.2 1016.2 0.2
22/01:00am 23.5 25.3 21.8 90 1.1 WSW 15 19 8 10 1016.5 1016.5 0.2
22/12:30am 24.1 26.7 22.0 88 1.4 SW 11 15 6 8 1016.5 1016.5 0.2
22/12:00am 24.1 27.1 22.0 88 1.4 WSW 9 13 5 7 1016.5 1016.5 0.2
 
Date/Time
EST
Temp
°C
App
Temp
°C
Dew
Point
Rel
Hum
%
Delta-T
°C
Wind Press
QNH
hPa
Press
MSL
hPa
Rain
since 9 am
mm
Dir
 
Spd
km/h
Gust
km/h
Spd
kts
Gust
kts
21/11:30pm 24.4 27.3 21.7 85 1.8 NW 9 11 5 6 1016.7 1016.7 0.2
21/11:00pm 24.6 27.0 21.5 83 2.0 NNW 11 15 6 8 1016.7 1016.7 0.2
21/10:30pm 24.7 27.6 21.8 84 1.9 NNW 9 13 5 7 1016.9 1016.9 0.2
21/10:00pm 24.8 27.3 21.7 83 2.1 N 11 15 6 8 1016.8 1016.8 0.2
21/09:30pm 24.9 26.4 21.2 80 2.4 N 15 17 8 9 1016.8 1016.8 0.2
21/09:00pm 24.9 26.1 21.4 81 2.3 N 17 19 9 10 1016.9 1016.9 0.2
21/08:30pm 25.0 26.7 21.7 82 2.2 NNE 15 19 8 10 1016.6 1016.6 0.2
21/08:00pm 24.9 26.9 21.6 82 2.2 N 13 15 7 8 1016.6 1016.6 0.2
21/07:30pm 24.9 27.4 21.8 83 2.1 N 11 15 6 8 1016.3 1016.3 0.2
21/07:00pm 25.0 27.1 21.7 82 2.2 N 13 17 7 9 1016.0 1016.0 0.2
21/06:30pm 25.0 26.7 21.7 82 2.2 N 15 19 8 10 1015.8 1015.8 0.2
21/06:00pm 25.0 26.0 21.7 82 2.2 NNE 19 22 10 12 1015.4 1015.4 0.2
21/05:30pm 24.9 26.2 21.6 82 2.2 NE 17 20 9 11 1015.2 1015.2 0.2
21/05:00pm 25.0 26.1 21.3 80 2.4 NE 17 20 9 11 1015.1 1015.1 0.2
21/04:30pm 25.1 25.8 21.6 81 2.3 NE 20 24 11 13 1014.8 1014.8 0.2
21/04:00pm 25.3 26.2 21.6 80 2.5 NE 19 20 10 11 1014.7 1014.7 0.2
21/03:30pm 25.7 28.1 21.6 78 2.7 ENE 11 15 6 8 1014.6 1014.6 0.2
21/03:00pm 25.6 27.9 21.3 77 2.8 ENE 11 17 6 9 1014.7 1014.7 0.2
21/02:30pm 25.7 27.3 20.7 74 3.3 E 13 15 7 8 1014.9 1014.9 0.2
21/02:00pm 26.7 29.6 21.0 71 3.8 E 7 13 4 7 1015.3 1015.3 0.2
21/01:30pm 25.9 28.8 21.1 75 3.2 E 7 9 4 5 1015.7 1015.7 0.2
21/01:00pm 26.1 29.3 21.7 77 2.9 ENE 7 9 4 5 1016.0 1016.0 0.2
21/12:30pm 25.9 29.4 21.8 78 2.7 SSE 6 7 3 4 1016.7 1016.7 0.2
21/12:00pm 24.7 27.0 21.4 82 2.2 S 11 13 6 7 1017.2 1017.2 0.2
21/11:30am 24.6 26.8 21.1 81 2.3 S 11 15 6 8 1017.8 1017.8 0.2
21/11:00am 24.6 26.4 21.1 81 2.3 S 13 17 7 9 1018.2 1018.2 0.2
21/10:30am 24.4 26.3 21.3 83 2.0 SSW 13 15 7 8 1018.5 1018.5 0.2
21/10:00am 23.9 25.8 21.4 86 1.6 SSW 13 17 7 9 1018.9 1018.9 0.2
21/09:30am 23.4 25.4 21.5 89 1.3 SW 13 17 7 9 1019.0 1019.0 0.2
21/09:00am 23.2 25.2 21.5 90 1.1 SW 13 17 7 9 1018.8 1018.8 0.0
21/08:30am 22.8 24.4 21.4 92 0.9 SW 15 17 8 9 1018.6 1018.6 0.0
21/08:00am 22.6 24.2 21.4 93 0.8 WSW 15 17 8 9 1018.2 1018.2 0.0
21/07:30am 22.4 24.3 21.4 94 0.7 WSW 13 15 7 8 1018.0 1018.0 0.0
21/07:00am 22.4 24.1 21.6 95 0.5 WSW 15 17 8 9 1017.6 1017.6 0.0
21/06:30am 22.5 24.6 21.7 95 0.5 SW 13 15 7 8 1017.2 1017.2 0.0
21/06:00am 22.4 23.3 21.6 95 0.5 WSW 19 22 10 12 1017.0 1017.0 0.0
21/05:30am 22.6 23.9 21.6 94 0.7 SW 17 19 9 10 1016.8 1016.8 0.0
21/05:00am 22.6 23.3 21.6 94 0.7 SW 20 22 11 12 1016.7 1016.7 0.0
21/04:30am 22.8 24.4 21.4 92 0.9 SW 15 19 8 10 1016.5 1016.5 0.0
21/04:00am 23.1 25.6 21.7 92 0.9 SW 11 15 6 8 1016.5 1016.5 0.0
21/03:30am 23.4 26.7 21.5 89 1.3 NW 6 7 3 4 1016.6 1016.6 0.0
21/03:00am 23.2 25.6 21.5 90 1.1 NE 11 15 6 8 1016.5 1016.5 0.0
21/02:30am 23.1 25.7 21.2 89 1.2 ESE 9 13 5 7 1016.6 1016.6 0.0
21/02:00am 23.3 24.4 21.2 88 1.4 E 17 26 9 14 1016.9 1016.9 0.0
21/01:30am 24.0 27.1 21.1 84 1.9 S 6 7 3 4 1017.1 1017.1 0.0
21/01:00am 23.9 25.8 20.6 82 2.1 SE 11 20 6 11 1017.1 1017.1 0.0
21/12:30am 24.1 26.0 21.4 85 1.8 SE 13 22 7 12 1017.3 1017.3 0.0
21/12:00am 24.6 25.7 21.3 82 2.2 ESE 17 24 9 13 1017.4 1017.4 0.0
 
Date/Time
EST
Temp
°C
App
Temp
°C
Dew
Point
Rel
Hum
%
Delta-T
°C
Wind Press
QNH
hPa
Press
MSL
hPa
Rain
since 9 am
mm
Dir
 
Spd
km/h
Gust
km/h
Spd
kts
Gust
kts
20/11:30pm 24.9 26.6 21.6 82 2.2 ESE 15 20 8 11 1017.6 1017.6 0.0
20/11:00pm 25.0 26.4 21.9 83 2.1 ESE 17 19 9 10 1017.7 1017.7 0.0
20/10:30pm 25.1 26.8 21.6 81 2.3 ESE 15 20 8 11 1017.8 1017.8 0.0
20/10:00pm 25.1 27.3 21.8 82 2.2 ESE 13 15 7 8 1017.9 1017.9 0.0
20/09:30pm 25.0 27.4 21.5 81 2.3 SE 11 15 6 8 1017.9 1017.9 0.0
20/09:00pm 24.8 27.5 21.3 81 2.3 SSE 9 13 5 7 1017.8 1017.8 0.0
20/08:30pm 24.7 27.4 21.4 82 2.2 S 9 11 5 6 1017.8 1017.8 0.0
20/08:00pm 24.7 27.0 21.4 82 2.2 ESE 11 15 6 8 1017.5 1017.5 0.0
20/07:30pm 24.5 25.7 21.4 83 2.0 E 17 22 9 12 1017.0 1017.0 0.0
20/07:00pm 24.8 26.9 21.7 83 2.1 ESE 13 20 7 11 1016.7 1016.7 0.0
20/06:30pm 24.7 26.5 21.2 81 2.3 ESE 13 17 7 9 1016.4 1016.4 0.0
20/06:00pm 24.8 25.7 21.5 82 2.2 ESE 19 22 10 12 1016.1 1016.1 0.0
20/05:30pm 25.0 26.1 21.3 80 2.4 ESE 17 20 9 11 1015.9 1015.9 0.0
20/05:00pm 25.2 26.0 20.7 76 2.9 ESE 17 20 9 11 1015.6 1015.6 0.0
20/04:30pm 25.7 28.2 20.3 72 3.5 SE 7 13 4 7 1015.3 1015.3 0.0
20/04:00pm 25.9 28.9 20.9 74 3.3 SSW 6 7 3 4 1015.1 1015.1 0.0
20/03:30pm 25.2 27.5 20.7 76 2.9 SSE 9 11 5 6 1015.1 1015.1 0.0
20/03:00pm 25.1 26.6 20.6 76 2.9 SSE 13 15 7 8 1015.1 1015.1 0.0
20/02:30pm 25.2 26.9 20.2 74 3.3 S 11 17 6 9 1015.3 1015.3 0.0
20/02:00pm 25.3 27.2 20.5 75 3.1 S 11 15 6 8 1015.5 1015.5 0.0
20/01:30pm 25.3 27.3 20.8 76 3.0 S 11 15 6 8 1015.9 1015.9 0.0
20/01:00pm 24.9 26.5 20.8 78 2.7 SSE 13 17 7 9 1016.3 1016.3 0.0
20/12:30pm 24.9 26.5 20.8 78 2.7 S 13 17 7 9 1016.7 1016.7 0.0
20/12:00pm 24.6 26.1 20.5 78 2.7 S 13 17 7 9 1017.1 1017.1 0.0
20/11:30am 23.9 24.3 20.6 82 2.2 SSW 19 24 10 13 1017.6 1017.6 0.0
20/11:00am 23.8 24.2 20.7 83 2.0 S 19 26 10 14 1017.7 1017.7 0.0
20/10:30am 23.6 23.5 20.7 84 1.9 SSW 22 26 12 14 1018.2 1018.2 0.0
20/10:00am 23.5 24.0 20.8 85 1.8 SSW 19 24 10 13 1018.2 1018.2 0.0
20/09:30am 23.0 22.9 20.7 87 1.5 SSW 22 28 12 15 1018.3 1018.3 0.0
20/09:00am 22.5 22.7 20.6 89 1.2 SW 20 22 11 12 1018.1 1018.1 0.0
20/08:30am 22.2 22.4 20.5 90 1.1 SW 20 24 11 13 1017.8 1017.8 0.0
20/08:00am 21.9 22.0 20.4 91 1.0 SW 20 22 11 12 1017.6 1017.6 0.0
20/07:30am 21.8 21.9 20.3 91 1.0 WSW 20 20 11 11 1017.3 1017.3 0.0
20/07:00am 21.8 22.1 20.4 92 0.9 WSW 19 22 10 12 1017.1 1017.1 0.0

Other Formats:

Comma delimited format used in spreadsheet applications
http://www.bom.gov.au/fwo/IDQ60801/IDQ60801.94295.axf

JavaScript Object Notation format (JSON) in row-major order
http://www.bom.gov.au/fwo/IDQ60801/IDQ60801.94295.json